Time;durP1;ratioP1;P1;durP2;ratioP2;P2;SDS_P1;SDS_P2;PMS_P1;PMS_P2;Temp;Humidity;BMP_temperature;BMP_pressure;BME280_temperature;BME280_humidity;BME280_pressure;Samples;Min_cycle;Max_cycle;Signal;HPM_P1;HPM_P2
2023/02/26 00:00:26;;;;;;;4.30;2.33;;;;;;;;;;5054957;28;20212;-78
2023/02/26 00:02:52;;;;;;;4.95;2.50;;;;;;;;;;5056028;28;20827;-78
2023/02/26 00:05:18;;;;;;;4.03;2.05;;;;;;;;;;5055265;28;20259;-77
2023/02/26 00:07:44;;;;;;;5.25;2.05;;;;;;;;;;5044005;28;20545;-78
2023/02/26 00:10:11;;;;;;;8.95;3.17;;;;;;;;;;5055277;28;20189;-77
2023/02/26 00:12:37;;;;;;;4.45;2.67;;;;;;;;;;5055484;28;20559;-77
2023/02/26 00:15:04;;;;;;;9.40;2.28;;;;;;;;;;5055319;28;20309;-77
2023/02/26 00:17:33;;;;;;;3.17;1.90;;;;;;;;;;5056876;28;20252;-77
2023/02/26 00:19:59;;;;;;;7.35;3.33;;;;;;;;;;5056971;28;20258;-77
2023/02/26 00:22:26;;;;;;;6.15;2.85;;;;;;;;;;5055897;28;20192;-76
2023/02/26 00:24:52;;;;;;;8.07;2.05;;;;;;;;;;5057021;28;20613;-77
2023/02/26 00:27:18;;;;;;;7.07;2.65;;;;;;;;;;5056848;28;20174;-76
2023/02/26 00:29:45;;;;;;;9.20;2.55;;;;;;;;;;5056207;28;20185;-77
2023/02/26 00:32:11;;;;;;;10.00;3.08;;;;;;;;;;5056591;28;20193;-77
2023/02/26 00:34:37;;;;;;;8.38;2.30;;;;;;;;;;5057072;28;20227;-77
2023/02/26 00:37:18;;;;;;;6.85;2.38;;;;;;;;;;5056101;28;20182;-79
2023/02/26 00:39:55;;;;;;;4.80;2.22;;;;;;;;;;5056741;28;20197;-76
2023/02/26 00:42:21;;;;;;;6.88;2.40;;;;;;;;;;5056568;28;20169;-77
2023/02/26 00:44:50;;;;;;;7.32;2.15;;;;;;;;;;5056190;28;20178;-76
2023/02/26 00:47:29;;;;;;;3.22;1.80;;;;;;;;;;5057156;28;20173;-77
2023/02/26 00:50:14;;;;;;;7.80;2.75;;;;;;;;;;5055579;28;20185;-78
2023/02/26 00:52:58;;;;;;;6.47;3.10;;;;;;;;;;5056625;28;20224;-77
2023/02/26 00:55:24;;;;;;;3.92;2.47;;;;;;;;;;5056746;28;20185;-77
2023/02/26 00:57:50;;;;;;;5.75;2.50;;;;;;;;;;5054047;28;20249;-83
2023/02/26 01:00:16;;;;;;;7.53;2.10;;;;;;;;;;5056559;28;20669;-77
2023/02/26 01:02:43;;;;;;;12.23;2.55;;;;;;;;;;5056802;28;20412;-78
2023/02/26 01:05:09;;;;;;;7.45;2.45;;;;;;;;;;5055730;28;20224;-77
2023/02/26 01:07:53;;;;;;;7.72;2.63;;;;;;;;;;5050186;28;20544;-78
2023/02/26 01:10:19;;;;;;;4.25;2.30;;;;;;;;;;5040632;28;20277;-77
2023/02/26 01:12:45;;;;;;;5.82;1.90;;;;;;;;;;5035246;28;20175;-78
2023/02/26 01:15:11;;;;;;;3.50;1.50;;;;;;;;;;5036349;28;20401;-78
2023/02/26 01:17:42;;;;;;;6.80;2.03;;;;;;;;;;5036094;28;20171;-77
2023/02/26 01:20:10;;;;;;;3.67;2.50;;;;;;;;;;5033856;28;20210;-77
2023/02/26 01:22:43;;;;;;;4.55;1.65;;;;;;;;;;5034584;28;20182;-77
2023/02/26 01:25:12;;;;;;;13.77;2.60;;;;;;;;;;5034393;28;20205;-78
2023/02/26 01:27:38;;;;;;;6.60;2.45;;;;;;;;;;5035083;28;20213;-77
2023/02/26 01:30:05;;;;;;;4.00;2.00;;;;;;;;;;5036065;28;20178;-77
2023/02/26 01:32:46;;;;;;;3.40;1.50;;;;;;;;;;5035595;28;20178;-77
2023/02/26 01:35:19;;;;;;;4.22;1.83;;;;;;;;;;5035065;28;20537;-76
2023/02/26 01:37:50;;;;;;;4.35;1.70;;;;;;;;;;5034449;28;20174;-77
2023/02/26 01:40:31;;;;;;;2.22;1.80;;;;;;;;;;5036181;28;20208;-77
2023/02/26 01:43:01;;;;;;;3.78;2.15;;;;;;;;;;5035101;28;20202;-76
2023/02/26 01:45:32;;;;;;;5.63;2.08;;;;;;;;;;5035849;28;20228;-77
2023/02/26 01:48:25;;;;;;;8.13;2.45;;;;;;;;;;5035601;28;20175;-77
2023/02/26 01:50:51;;;;;;;4.15;1.95;;;;;;;;;;5018737;28;20190;-77
2023/02/26 01:53:24;;;;;;;6.37;1.97;;;;;;;;;;5035252;28;20182;-78
2023/02/26 01:55:58;;;;;;;5.78;1.60;;;;;;;;;;5034769;28;20405;-77
2023/02/26 01:58:26;;;;;;;3.40;1.40;;;;;;;;;;5032592;28;20170;-77
2023/02/26 02:00:52;;;;;;;9.93;1.88;;;;;;;;;;5036645;28;20560;-78
2023/02/26 02:03:18;;;;;;;3.15;1.38;;;;;;;;;;5037836;28;20274;-77
2023/02/26 02:05:47;;;;;;;2.42;1.60;;;;;;;;;;5038232;28;20185;-78
2023/02/26 02:08:13;;;;;;;3.25;1.45;;;;;;;;;;5039069;28;20229;-78
2023/02/26 02:10:42;;;;;;;6.72;2.25;;;;;;;;;;5045268;28;20185;-78
2023/02/26 02:13:11;;;;;;;3.30;1.95;;;;;;;;;;5036500;28;20252;-78
2023/02/26 02:15:55;;;;;;;3.65;1.67;;;;;;;;;;5039887;28;20536;-78
2023/02/26 02:18:23;;;;;;;4.10;1.48;;;;;;;;;;5038034;28;20186;-77
2023/02/26 02:21:08;;;;;;;2.70;1.17;;;;;;;;;;5038665;28;20209;-77
2023/02/26 02:23:34;;;;;;;3.05;1.60;;;;;;;;;;5038104;28;20208;-78
2023/02/26 02:26:19;;;;;;;2.87;1.50;;;;;;;;;;5039502;28;20210;-77
2023/02/26 02:29:02;;;;;;;3.40;2.08;;;;;;;;;;5039567;28;20397;-77
2023/02/26 02:31:31;;;;;;;2.63;1.83;;;;;;;;;;5038905;28;20189;-77
2023/02/26 02:33:57;;;;;;;4.03;2.55;;;;;;;;;;5039165;28;20173;-77
2023/02/26 02:36:28;;;;;;;5.37;1.73;;;;;;;;;;5039183;28;20174;-77
2023/02/26 02:38:56;;;;;;;8.13;1.90;;;;;;;;;;5038907;28;20408;-78
2023/02/26 02:41:41;;;;;;;3.10;2.47;;;;;;;;;;5037866;28;20268;-78
2023/02/26 02:44:09;;;;;;;4.72;1.65;;;;;;;;;;5038079;28;20245;-78
2023/02/26 02:46:36;;;;;;;6.18;1.48;;;;;;;;;;5037477;28;20185;-77
2023/02/26 02:49:17;;;;;;;3.70;2.20;;;;;;;;;;5037394;28;20182;-78
2023/02/26 02:51:49;;;;;;;6.78;1.70;;;;;;;;;;5038523;28;20614;-78
2023/02/26 02:54:18;;;;;;;5.95;1.60;;;;;;;;;;5037110;28;20684;-77
2023/02/26 02:56:50;;;;;;;4.47;1.85;;;;;;;;;;5038781;28;20189;-78
2023/02/26 02:59:20;;;;;;;4.07;1.55;;;;;;;;;;5038437;28;20569;-78
2023/02/26 03:01:48;;;;;;;6.53;1.65;;;;;;;;;;5038199;28;20177;-77
2023/02/26 03:04:15;;;;;;;4.80;1.65;;;;;;;;;;5038607;28;20202;-77
2023/02/26 03:06:41;;;;;;;7.00;1.65;;;;;;;;;;5038129;28;20198;-77
2023/02/26 03:09:09;;;;;;;4.65;1.83;;;;;;;;;;5038130;28;20184;-78
2023/02/26 03:11:35;;;;;;;4.35;1.90;;;;;;;;;;5038091;28;20232;-77
2023/02/26 03:14:02;;;;;;;3.00;1.85;;;;;;;;;;5037110;28;20255;-77
2023/02/26 03:16:28;;;;;;;4.35;1.95;;;;;;;;;;5038158;28;20297;-77
2023/02/26 03:19:13;;;;;;;4.87;2.40;;;;;;;;;;5037996;28;20558;-77
2023/02/26 03:21:44;;;;;;;1.75;1.65;;;;;;;;;;5038131;28;20500;-77
2023/02/26 03:24:26;;;;;;;5.70;1.48;;;;;;;;;;5037406;28;20178;-77
2023/02/26 03:27:11;;;;;;;7.43;2.30;;;;;;;;;;5036847;28;20685;-77
2023/02/26 03:29:47;;;;;;;4.65;1.92;;;;;;;;;;5037799;28;20182;-77
2023/02/26 03:32:19;;;;;;;6.68;1.60;;;;;;;;;;5037254;28;20174;-79
2023/02/26 03:34:51;;;;;;;2.95;1.85;;;;;;;;;;5037877;28;20583;-79
2023/02/26 03:37:20;;;;;;;3.95;2.20;;;;;;;;;;5037416;28;20182;-79
2023/02/26 03:39:49;;;;;;;6.65;1.80;;;;;;;;;;5037762;28;20214;-79
2023/02/26 03:42:20;;;;;;;4.60;1.80;;;;;;;;;;5037249;28;20198;-79
2023/02/26 03:44:52;;;;;;;3.50;1.67;;;;;;;;;;5037308;28;20571;-79
2023/02/26 03:47:18;;;;;;;4.05;1.63;;;;;;;;;;5037504;28;20256;-79
2023/02/26 03:49:55;;;;;;;4.15;1.73;;;;;;;;;;5037518;28;20201;-79
2023/02/26 03:52:23;;;;;;;9.68;1.48;;;;;;;;;;5037082;28;20169;-79
2023/02/26 03:54:53;;;;;;;3.30;2.35;;;;;;;;;;5037445;28;20269;-80
2023/02/26 03:57:19;;;;;;;7.18;2.75;;;;;;;;;;5037190;28;20494;-78
2023/02/26 03:59:45;;;;;;;2.97;1.52;;;;;;;;;;5037289;28;20546;-79
2023/02/26 04:02:33;;;;;;;4.20;1.67;;;;;;;;;;5037092;28;20189;-79
2023/02/26 04:05:07;;;;;;;7.00;2.30;;;;;;;;;;5037028;28;20173;-79
2023/02/26 04:07:32;;;;;;;6.25;1.83;;;;;;;;;;5036870;28;20529;-79
2023/02/26 04:09:58;;;;;;;13.35;2.00;;;;;;;;;;5036866;28;20200;-79
2023/02/26 04:12:26;;;;;;;3.33;1.60;;;;;;;;;;5035460;28;20181;-79
2023/02/26 04:14:52;;;;;;;8.63;2.05;;;;;;;;;;5036609;28;20453;-79
2023/02/26 04:17:18;;;;;;;6.00;3.05;;;;;;;;;;5035434;28;20182;-79
2023/02/26 04:19:44;;;;;;;6.05;1.60;;;;;;;;;;5036418;28;20210;-79
2023/02/26 04:22:10;;;;;;;5.40;2.25;;;;;;;;;;5035874;28;20562;-79
2023/02/26 04:24:36;;;;;;;2.05;1.75;;;;;;;;;;5035319;28;20681;-79
2023/02/26 04:27:02;;;;;;;4.55;1.50;;;;;;;;;;5035580;28;20505;-84
2023/02/26 04:29:28;;;;;;;3.22;1.80;;;;;;;;;;5036526;28;20255;-79
2023/02/26 04:31:54;;;;;;;5.93;2.30;;;;;;;;;;5035646;28;20181;-79
2023/02/26 04:34:20;;;;;;;7.45;2.72;;;;;;;;;;5036376;28;20520;-79
2023/02/26 04:36:46;;;;;;;4.03;1.87;;;;;;;;;;5035868;28;20236;-79
2023/02/26 04:39:12;;;;;;;4.45;1.70;;;;;;;;;;5035295;28;20439;-79
2023/02/26 04:41:38;;;;;;;6.07;1.50;;;;;;;;;;5036724;28;20202;-79
2023/02/26 04:44:04;;;;;;;2.08;1.20;;;;;;;;;;5035960;28;20261;-80
2023/02/26 04:46:31;;;;;;;8.98;1.30;;;;;;;;;;5036840;28;20191;-79
2023/02/26 04:48:57;;;;;;;3.72;1.55;;;;;;;;;;5036278;28;20200;-78
2023/02/26 04:51:23;;;;;;;2.85;1.42;;;;;;;;;;5035872;28;20178;-79
2023/02/26 04:53:49;;;;;;;7.43;1.63;;;;;;;;;;5035078;28;20185;-78
2023/02/26 04:56:15;;;;;;;3.57;1.40;;;;;;;;;;5036460;28;20166;-79
2023/02/26 04:58:41;;;;;;;3.00;1.33;;;;;;;;;;5036313;28;20408;-79
2023/02/26 05:01:07;;;;;;;3.25;1.10;;;;;;;;;;5035759;28;20236;-79
2023/02/26 05:03:33;;;;;;;2.65;1.13;;;;;;;;;;5036092;28;20178;-79
2023/02/26 05:05:59;;;;;;;5.00;1.30;;;;;;;;;;5036229;28;20178;-79
2023/02/26 05:08:25;;;;;;;3.28;1.83;;;;;;;;;;5036256;28;20170;-79
2023/02/26 05:10:51;;;;;;;2.10;1.13;;;;;;;;;;5035413;28;20594;-79
2023/02/26 05:13:20;;;;;;;3.25;0.90;;;;;;;;;;5035356;28;20234;-79
2023/02/26 05:15:46;;;;;;;3.30;1.60;;;;;;;;;;5036185;28;20166;-79
2023/02/26 05:18:12;;;;;;;3.78;1.38;;;;;;;;;;5036144;28;20177;-79
2023/02/26 05:20:39;;;;;;;3.97;1.48;;;;;;;;;;5036342;28;20214;-79
2023/02/26 05:23:05;;;;;;;3.15;1.23;;;;;;;;;;5035149;28;20171;-81
2023/02/26 05:25:31;;;;;;;8.85;1.40;;;;;;;;;;5036692;28;20663;-79
2023/02/26 05:27:57;;;;;;;2.50;1.35;;;;;;;;;;5036165;28;20197;-79
2023/02/26 05:30:23;;;;;;;1.73;1.40;;;;;;;;;;5036036;28;20658;-78
2023/02/26 05:32:49;;;;;;;4.35;1.88;;;;;;;;;;5035768;28;20184;-78
2023/02/26 05:35:15;;;;;;;7.72;2.58;;;;;;;;;;5034954;28;20622;-79
2023/02/26 05:37:41;;;;;;;2.88;1.60;;;;;;;;;;5039692;28;20665;-78
2023/02/26 05:40:09;;;;;;;2.93;1.67;;;;;;;;;;5039587;28;20206;-80
2023/02/26 05:42:35;;;;;;;10.13;2.13;;;;;;;;;;5040449;28;20758;-79
2023/02/26 05:45:03;;;;;;;4.40;2.22;;;;;;;;;;5040152;28;20262;-79
2023/02/26 05:47:29;;;;;;;2.05;1.60;;;;;;;;;;5039299;28;20173;-78
2023/02/26 05:49:55;;;;;;;4.73;1.70;;;;;;;;;;5039466;28;20188;-78
2023/02/26 05:52:21;;;;;;;3.95;1.70;;;;;;;;;;5038886;28;20465;-78
2023/02/26 05:54:47;;;;;;;3.85;2.10;;;;;;;;;;5039769;28;20212;-79
2023/02/26 05:57:13;;;;;;;7.45;1.85;;;;;;;;;;5039687;28;20572;-79
2023/02/26 05:59:39;;;;;;;3.50;1.83;;;;;;;;;;5038195;28;20223;-76
2023/02/26 06:02:05;;;;;;;4.03;1.40;;;;;;;;;;5038223;28;20410;-77
2023/02/26 06:04:30;;;;;;;8.68;1.58;;;;;;;;;;5039539;28;20401;-79
2023/02/26 06:06:56;;;;;;;3.43;1.83;;;;;;;;;;5039381;28;20178;-78
2023/02/26 06:09:22;;;;;;;4.80;1.57;;;;;;;;;;5037940;28;20417;-78
2023/02/26 06:11:48;;;;;;;1.67;1.53;;;;;;;;;;5037707;28;20406;-79
2023/02/26 06:14:14;;;;;;;6.38;2.30;;;;;;;;;;5039556;28;20478;-78
2023/02/26 06:16:40;;;;;;;4.28;1.50;;;;;;;;;;5039598;28;20268;-79
2023/02/26 06:19:06;;;;;;;4.30;1.63;;;;;;;;;;5039587;28;20272;-78
2023/02/26 06:21:32;;;;;;;3.70;1.77;;;;;;;;;;5038667;28;20496;-78
2023/02/26 06:23:58;;;;;;;6.40;2.30;;;;;;;;;;5039025;28;20190;-78
2023/02/26 06:26:24;;;;;;;6.78;2.88;;;;;;;;;;5039106;28;20545;-79
2023/02/26 06:28:50;;;;;;;3.33;1.60;;;;;;;;;;5039042;28;20189;-78
2023/02/26 06:31:16;;;;;;;7.38;1.70;;;;;;;;;;5038707;28;20541;-78
2023/02/26 06:33:42;;;;;;;1.70;1.20;;;;;;;;;;5039248;28;20174;-78
2023/02/26 06:36:08;;;;;;;3.40;1.70;;;;;;;;;;5039574;28;20408;-78
2023/02/26 06:38:34;;;;;;;6.15;2.03;;;;;;;;;;5038612;28;20491;-78
2023/02/26 06:41:00;;;;;;;2.88;1.70;;;;;;;;;;5038887;28;20217;-79
2023/02/26 06:43:26;;;;;;;1.73;1.35;;;;;;;;;;5038381;28;20181;-79
2023/02/26 06:45:52;;;;;;;1.98;1.40;;;;;;;;;;5037671;28;20601;-79
2023/02/26 06:48:18;;;;;;;8.07;2.92;;;;;;;;;;5037083;28;20182;-79
2023/02/26 06:50:44;;;;;;;5.78;2.13;;;;;;;;;;5038873;28;20618;-79
2023/02/26 06:53:10;;;;;;;6.10;1.70;;;;;;;;;;5038311;28;20171;-81
2023/02/26 06:55:36;;;;;;;3.35;1.48;;;;;;;;;;5038680;28;20563;-78
2023/02/26 06:58:02;;;;;;;3.53;1.67;;;;;;;;;;5036992;28;20182;-79
2023/02/26 07:00:28;;;;;;;5.72;1.80;;;;;;;;;;5037634;28;20224;-79
2023/02/26 07:02:54;;;;;;;7.63;1.92;;;;;;;;;;5037293;28;20181;-78
2023/02/26 07:05:20;;;;;;;6.53;1.75;;;;;;;;;;5036678;28;20631;-78
2023/02/26 07:07:46;;;;;;;3.17;1.60;;;;;;;;;;5038323;28;20177;-78
2023/02/26 07:10:12;;;;;;;2.63;1.87;;;;;;;;;;5037652;28;20636;-81
2023/02/26 07:12:38;;;;;;;2.70;1.65;;;;;;;;;;5038153;28;20762;-79
2023/02/26 07:15:05;;;;;;;5.05;1.95;;;;;;;;;;5038511;28;20624;-78
2023/02/26 07:17:31;;;;;;;5.95;2.20;;;;;;;;;;5037678;28;20201;-79
2023/02/26 07:19:57;;;;;;;6.30;2.35;;;;;;;;;;5037805;28;20267;-78
2023/02/26 07:22:23;;;;;;;5.57;1.50;;;;;;;;;;5038287;28;20183;-79
2023/02/26 07:24:50;;;;;;;5.90;1.50;;;;;;;;;;5038398;28;20557;-79
2023/02/26 07:27:16;;;;;;;8.77;1.35;;;;;;;;;;5037755;28;20416;-79
2023/02/26 07:29:42;;;;;;;3.03;2.03;;;;;;;;;;5037609;28;20197;-78
2023/02/26 07:32:08;;;;;;;2.95;1.77;;;;;;;;;;5037713;28;20178;-79
2023/02/26 07:34:34;;;;;;;2.58;2.03;;;;;;;;;;5037244;28;20174;-79
2023/02/26 07:37:00;;;;;;;6.15;2.20;;;;;;;;;;5037714;28;20227;-79
2023/02/26 07:39:26;;;;;;;5.07;1.95;;;;;;;;;;5037431;28;20189;-79
2023/02/26 07:41:53;;;;;;;3.30;1.60;;;;;;;;;;5036016;28;20181;-79
2023/02/26 07:44:19;;;;;;;2.47;1.60;;;;;;;;;;5037270;28;20205;-78
2023/02/26 07:46:45;;;;;;;3.47;1.95;;;;;;;;;;5038048;28;20178;-79
2023/02/26 07:49:11;;;;;;;7.40;1.98;;;;;;;;;;5037996;28;20209;-79
2023/02/26 07:51:37;;;;;;;4.40;2.28;;;;;;;;;;5036901;28;20561;-79
2023/02/26 07:54:03;;;;;;;4.22;2.10;;;;;;;;;;5019512;28;20181;-79
2023/02/26 07:56:29;;;;;;;11.13;4.22;;;;;;;;;;5037267;28;20182;-80
2023/02/26 07:58:55;;;;;;;7.63;2.00;;;;;;;;;;5036651;28;20193;-79
2023/02/26 08:01:21;;;;;;;4.25;1.90;;;;;;;;;;5037194;28;20530;-79
2023/02/26 08:03:47;;;;;;;5.90;1.80;;;;;;;;;;5037667;28;20178;-79
2023/02/26 08:06:13;;;;;;;6.03;2.30;;;;;;;;;;5037269;28;20780;-79
2023/02/26 08:08:39;;;;;;;4.82;1.65;;;;;;;;;;5037075;28;20308;-79
2023/02/26 08:11:05;;;;;;;1.92;1.40;;;;;;;;;;5037240;28;20202;-78
2023/02/26 08:13:31;;;;;;;3.30;1.90;;;;;;;;;;5037142;28;20223;-79
2023/02/26 08:15:57;;;;;;;3.35;1.90;;;;;;;;;;5037594;28;20194;-79
2023/02/26 08:18:23;;;;;;;4.72;2.22;;;;;;;;;;5037164;28;20202;-78
2023/02/26 08:20:51;;;;;;;4.20;2.25;;;;;;;;;;5037111;28;20221;-79
2023/02/26 08:23:17;;;;;;;6.57;2.50;;;;;;;;;;5036587;28;20181;-79
2023/02/26 08:25:44;;;;;;;3.15;2.05;;;;;;;;;;5035996;28;20582;-78
2023/02/26 08:28:10;;;;;;;4.07;1.55;;;;;;;;;;5037309;28;20170;-79
2023/02/26 08:30:36;;;;;;;2.53;1.92;;;;;;;;;;5037389;28;20189;-79
2023/02/26 08:33:02;;;;;;;4.57;2.28;;;;;;;;;;5037253;28;20546;-78
2023/02/26 08:35:28;;;;;;;5.70;2.25;;;;;;;;;;5035775;28;20170;-76
2023/02/26 08:37:54;;;;;;;2.90;2.13;;;;;;;;;;5036610;28;20174;-79
2023/02/26 08:40:20;;;;;;;3.10;1.83;;;;;;;;;;5036631;28;20530;-78
2023/02/26 08:42:46;;;;;;;1.73;1.50;;;;;;;;;;5037257;28;20499;-79
2023/02/26 08:45:12;;;;;;;3.35;2.15;;;;;;;;;;5037524;28;20178;-77
2023/02/26 08:47:40;;;;;;;4.60;2.13;;;;;;;;;;5037075;28;20166;-78
2023/02/26 08:50:06;;;;;;;4.45;2.10;;;;;;;;;;5036395;28;20268;-78
2023/02/26 08:52:32;;;;;;;2.67;1.90;;;;;;;;;;5036491;28;20528;-78
2023/02/26 08:54:58;;;;;;;5.43;2.20;;;;;;;;;;5036694;28;20229;-78
2023/02/26 08:57:24;;;;;;;4.97;1.90;;;;;;;;;;5036132;28;20186;-78
2023/02/26 08:59:50;;;;;;;5.73;2.63;;;;;;;;;;5036506;28;20220;-77
2023/02/26 09:02:17;;;;;;;5.72;2.00;;;;;;;;;;5034783;28;20811;-83
2023/02/26 09:04:43;;;;;;;5.05;2.05;;;;;;;;;;5034898;28;20177;-81
2023/02/26 09:07:09;;;;;;;3.00;2.42;;;;;;;;;;5035745;28;20181;-80
2023/02/26 09:09:35;;;;;;;3.38;1.80;;;;;;;;;;5035761;28;20244;-80
2023/02/26 09:12:01;;;;;;;4.30;1.40;;;;;;;;;;5038666;28;20531;-80
2023/02/26 09:14:27;;;;;;;3.30;1.70;;;;;;;;;;5039235;28;20699;-80
2023/02/26 09:16:53;;;;;;;2.70;2.05;;;;;;;;;;5039070;28;20406;-80
2023/02/26 09:19:19;;;;;;;2.75;1.65;;;;;;;;;;5039773;28;20537;-85
2023/02/26 09:21:45;;;;;;;4.47;1.88;;;;;;;;;;5039669;28;20208;-80
2023/02/26 09:24:11;;;;;;;3.13;1.85;;;;;;;;;;5039071;28;20184;-81
2023/02/26 09:26:37;;;;;;;2.17;1.77;;;;;;;;;;5039598;28;20179;-80
2023/02/26 09:29:04;;;;;;;4.73;1.70;;;;;;;;;;5039444;28;20460;-80
2023/02/26 09:31:30;;;;;;;4.13;1.80;;;;;;;;;;5038720;28;20405;-80
2023/02/26 09:33:56;;;;;;;4.13;2.22;;;;;;;;;;5037798;28;20266;-81
2023/02/26 09:36:22;;;;;;;1.60;1.50;;;;;;;;;;5038207;28;20208;-81
2023/02/26 09:38:48;;;;;;;4.53;1.60;;;;;;;;;;5038875;28;20423;-81
2023/02/26 09:41:16;;;;;;;3.67;1.60;;;;;;;;;;5038775;28;20468;-81
2023/02/26 09:44:04;;;;;;;3.42;1.90;;;;;;;;;;5038417;28;20182;-81
2023/02/26 09:46:42;;;;;;;4.40;1.20;;;;;;;;;;5038459;28;20606;-82
2023/02/26 09:49:18;;;;;;;3.05;1.35;;;;;;;;;;5038611;28;20175;-82
2023/02/26 09:51:45;;;;;;;4.38;1.45;;;;;;;;;;5038473;28;20175;-80
2023/02/26 09:54:17;;;;;;;2.95;1.35;;;;;;;;;;5038402;28;20182;-81
2023/02/26 09:56:44;;;;;;;2.78;1.45;;;;;;;;;;5037997;28;20177;-81
2023/02/26 09:59:10;;;;;;;2.70;1.23;;;;;;;;;;5020526;28;20190;-82
2023/02/26 10:01:36;;;;;;;2.45;1.30;;;;;;;;;;5037595;28;20297;-82
2023/02/26 10:04:08;;;;;;;3.40;1.17;;;;;;;;;;5038538;28;20172;-81
2023/02/26 10:06:40;;;;;;;2.70;1.40;;;;;;;;;;5037590;28;20174;-81
2023/02/26 10:09:35;;;;;;;2.30;1.05;;;;;;;;;;5038007;28;20174;-81
2023/02/26 10:12:10;;;;;;;2.28;1.30;;;;;;;;;;5001221;28;20277;-81
2023/02/26 10:14:39;;;;;;;1.02;0.90;;;;;;;;;;5048694;28;20536;-81
2023/02/26 10:17:08;;;;;;;2.85;1.13;;;;;;;;;;5041537;28;20184;-81
2023/02/26 10:19:36;;;;;;;3.72;1.33;;;;;;;;;;5035976;28;20264;-81
2023/02/26 10:22:13;;;;;;;3.38;1.00;;;;;;;;;;5037540;28;20175;-81
2023/02/26 10:24:45;;;;;;;1.98;1.00;;;;;;;;;;5037206;28;20182;-81
2023/02/26 10:27:34;;;;;;;1.15;0.80;;;;;;;;;;5038079;28;20174;-81
2023/02/26 10:30:03;;;;;;;2.10;1.10;;;;;;;;;;5047934;28;20200;-81
2023/02/26 10:32:37;;;;;;;1.90;0.93;;;;;;;;;;5057023;28;20170;-81
2023/02/26 10:35:07;;;;;;;2.00;1.20;;;;;;;;;;5056471;28;20540;-80
2023/02/26 10:37:53;;;;;;;2.00;1.25;;;;;;;;;;5068789;28;20556;-80
2023/02/26 10:40:38;;;;;;;1.48;1.10;;;;;;;;;;5077603;28;20664;-81
2023/02/26 10:43:09;;;;;;;1.63;0.70;;;;;;;;;;5075583;28;20176;-80
2023/02/26 10:45:41;;;;;;;1.83;0.90;;;;;;;;;;5076743;28;20161;-80
2023/02/26 10:48:25;;;;;;;1.60;0.80;;;;;;;;;;5062363;28;20177;-80
2023/02/26 10:50:52;;;;;;;2.03;0.90;;;;;;;;;;5058909;28;20216;-81
2023/02/26 10:53:20;;;;;;;2.50;1.10;;;;;;;;;;5065703;28;20184;-81
2023/02/26 10:55:48;;;;;;;1.17;0.80;;;;;;;;;;5075102;28;20169;-81
2023/02/26 10:58:15;;;;;;;1.60;0.90;;;;;;;;;;5075451;28;20185;-80
2023/02/26 11:00:42;;;;;;;2.95;2.00;;;;;;;;;;5076625;28;20212;-81
2023/02/26 11:03:13;;;;;;;3.85;0.90;;;;;;;;;;5076873;28;20222;-80
2023/02/26 11:05:39;;;;;;;2.00;0.80;;;;;;;;;;5068616;28;20208;-81
2023/02/26 11:08:13;;;;;;;2.47;1.00;;;;;;;;;;5056769;28;20661;-80
2023/02/26 11:10:56;;;;;;;1.63;1.00;;;;;;;;;;5068185;28;20258;-80
2023/02/26 11:13:23;;;;;;;1.00;0.82;;;;;;;;;;5049143;28;20232;-86
2023/02/26 11:15:50;;;;;;;2.25;0.98;;;;;;;;;;5055697;28;20510;-86
2023/02/26 11:18:39;;;;;;;2.50;1.00;;;;;;;;;;5058677;28;20231;-86
2023/02/26 11:21:06;;;;;;;2.38;1.30;;;;;;;;;;5055214;28;20552;-86
2023/02/26 11:23:33;;;;;;;1.70;0.90;;;;;;;;;;5075524;28;20207;-86
2023/02/26 11:26:13;;;;;;;1.97;1.13;;;;;;;;;;5074302;28;20898;-86
2023/02/26 11:28:47;;;;;;;1.25;0.85;;;;;;;;;;5062157;28;20406;-85
2023/02/26 11:31:15;;;;;;;3.93;1.30;;;;;;;;;;5068218;28;20181;-84
2023/02/26 11:33:48;;;;;;;2.10;1.10;;;;;;;;;;5054881;28;20404;-85
2023/02/26 11:36:15;;;;;;;2.53;1.10;;;;;;;;;;5054847;28;20412;-84
2023/02/26 11:38:45;;;;;;;2.60;0.93;;;;;;;;;;5054172;28;20416;-85
2023/02/26 11:41:11;;;;;;;1.60;1.03;;;;;;;;;;5054192;28;20460;-84
2023/02/26 11:43:42;;;;;;;3.17;1.00;;;;;;;;;;5054764;28;20458;-83
2023/02/26 11:46:09;;;;;;;2.00;0.90;;;;;;;;;;5055654;28;20404;-84
2023/02/26 11:48:40;;;;;;;4.70;1.25;;;;;;;;;;5053810;28;20426;-84
2023/02/26 11:51:07;;;;;;;5.05;1.40;;;;;;;;;;5055352;28;20632;-84
2023/02/26 11:53:37;;;;;;;2.75;1.00;;;;;;;;;;5053807;28;20665;-84
2023/02/26 11:56:08;;;;;;;1.50;0.90;;;;;;;;;;5066094;28;20183;-84
2023/02/26 11:58:36;;;;;;;1.52;1.13;;;;;;;;;;5056621;28;20208;-84
2023/02/26 12:01:03;;;;;;;1.45;1.05;;;;;;;;;;5054974;28;20627;-84
2023/02/26 12:03:32;;;;;;;1.75;0.82;;;;;;;;;;5053673;28;20243;-86
2023/02/26 12:06:00;;;;;;;1.58;0.90;;;;;;;;;;5055316;28;20232;-86
2023/02/26 12:08:38;;;;;;;1.40;1.13;;;;;;;;;;5055069;28;20166;-85
2023/02/26 12:11:05;;;;;;;2.75;0.88;;;;;;;;;;5054843;28;20185;-87
2023/02/26 12:13:43;;;;;;;2.03;0.70;;;;;;;;;;5054275;28;20227;-86
2023/02/26 12:16:16;;;;;;;4.32;1.10;;;;;;;;;;5053214;28;20204;-85
2023/02/26 12:18:51;;;;;;;2.30;2.08;;;;;;;;;;5054232;28;20174;-85
2023/02/26 12:21:24;;;;;;;2.58;1.00;;;;;;;;;;5054035;28;20556;-85
2023/02/26 12:23:50;;;;;;;2.20;1.00;;;;;;;;;;5054275;28;20237;-86
2023/02/26 12:26:28;;;;;;;1.90;1.10;;;;;;;;;;5054689;28;20751;-85
2023/02/26 12:29:04;;;;;;;0.93;0.82;;;;;;;;;;5054021;28;20928;-86
2023/02/26 12:31:59;;;;;;;1.55;0.70;;;;;;;;;;5054788;28;20161;-86
2023/02/26 12:34:25;;;;;;;2.25;1.05;;;;;;;;;;5017670;28;20213;-85
2023/02/26 12:37:10;;;;;;;2.60;1.00;;;;;;;;;;5052807;28;20173;-85
2023/02/26 12:39:49;;;;;;;1.10;0.65;;;;;;;;;;5054442;28;20411;-85
2023/02/26 12:42:33;;;;;;;1.95;0.90;;;;;;;;;;5054175;28;20192;-85
2023/02/26 12:45:05;;;;;;;1.00;0.90;;;;;;;;;;5054170;28;20620;-85
2023/02/26 12:47:34;;;;;;;1.70;0.93;;;;;;;;;;5053186;28;20189;-89
2023/02/26 12:50:07;;;;;;;1.70;0.93;;;;;;;;;;5054566;28;20173;-85
2023/02/26 12:52:39;;;;;;;2.10;0.95;;;;;;;;;;5053070;28;20208;-86
2023/02/26 12:55:24;;;;;;;2.13;1.10;;;;;;;;;;5052826;28;20546;-84
2023/02/26 12:58:02;;;;;;;1.13;0.75;;;;;;;;;;5054130;28;20204;-84
2023/02/26 13:00:31;;;;;;;1.63;1.33;;;;;;;;;;5053832;28;20245;-85
2023/02/26 13:03:09;;;;;;;5.22;1.20;;;;;;;;;;5052875;28;20201;-85
2023/02/26 13:05:47;;;;;;;1.25;0.85;;;;;;;;;;5052520;28;20265;-84
2023/02/26 13:08:35;;;;;;;1.40;0.90;;;;;;;;;;5053977;28;20181;-84
2023/02/26 13:11:17;;;;;;;1.30;0.93;;;;;;;;;;5053848;28;20569;-85
2023/02/26 13:13:47;;;;;;;1.00;0.77;;;;;;;;;;5052132;28;20254;-85
2023/02/26 13:16:20;;;;;;;1.60;0.95;;;;;;;;;;5054598;28;20177;-85
2023/02/26 13:18:55;;;;;;;2.88;1.38;;;;;;;;;;5053610;28;20629;-85
2023/02/26 13:21:26;;;;;;;2.22;1.10;;;;;;;;;;5053825;28;20208;-84
2023/02/26 13:23:59;;;;;;;2.65;1.38;;;;;;;;;;5053413;28;20194;-84
2023/02/26 13:26:26;;;;;;;1.00;0.80;;;;;;;;;;5053696;28;20173;-85
2023/02/26 13:28:55;;;;;;;1.85;0.82;;;;;;;;;;5053790;28;20224;-85
2023/02/26 13:31:27;;;;;;;4.35;1.05;;;;;;;;;;5052859;28;20173;-85
2023/02/26 13:33:54;;;;;;;1.67;1.00;;;;;;;;;;5053605;28;20173;-85
2023/02/26 13:36:22;;;;;;;1.63;0.95;;;;;;;;;;5052241;28;20185;-85
2023/02/26 13:39:03;;;;;;;0.90;0.70;;;;;;;;;;5052459;28;20690;-84
2023/02/26 13:41:50;;;;;;;1.40;1.08;;;;;;;;;;5053827;28;20189;-85
2023/02/26 13:44:16;;;;;;;2.97;0.90;;;;;;;;;;5052786;28;20691;-85
2023/02/26 13:46:42;;;;;;;2.60;1.20;;;;;;;;;;5052113;28;20185;-84
2023/02/26 13:49:21;;;;;;;1.40;1.00;;;;;;;;;;5053311;28;20435;-84
2023/02/26 13:51:48;;;;;;;1.60;0.80;;;;;;;;;;5052130;28;20454;-84
2023/02/26 13:54:15;;;;;;;2.75;1.10;;;;;;;;;;5052440;28;20569;-84
2023/02/26 13:56:54;;;;;;;2.20;0.88;;;;;;;;;;5053969;28;20219;-84
2023/02/26 13:59:46;;;;;;;3.20;1.10;;;;;;;;;;5056112;28;20191;-84
2023/02/26 14:02:18;;;;;;;4.00;0.85;;;;;;;;;;5056142;28;20598;-84
2023/02/26 14:04:56;;;;;;;2.15;0.90;;;;;;;;;;5055505;28;20186;-84
2023/02/26 14:07:41;;;;;;;1.75;0.90;;;;;;;;;;5056803;28;20165;-84
2023/02/26 14:10:24;;;;;;;1.67;0.80;;;;;;;;;;5056076;28;20197;-84
2023/02/26 14:13:02;;;;;;;1.40;0.98;;;;;;;;;;5057754;28;20181;-84
2023/02/26 14:15:31;;;;;;;1.55;0.90;;;;;;;;;;5055860;28;20200;-84
2023/02/26 14:18:02;;;;;;;2.63;1.00;;;;;;;;;;5055739;28;20730;-84
2023/02/26 14:20:31;;;;;;;1.45;1.10;;;;;;;;;;5056590;28;20563;-84
2023/02/26 14:23:10;;;;;;;2.10;0.80;;;;;;;;;;5055389;28;20217;-83
2023/02/26 14:25:37;;;;;;;6.07;1.05;;;;;;;;;;5059030;28;20195;-84
2023/02/26 14:28:23;;;;;;;1.45;0.95;;;;;;;;;;5058466;28;20188;-84
2023/02/26 14:30:51;;;;;;;1.17;0.80;;;;;;;;;;5055396;28;20518;-84
2023/02/26 14:33:18;;;;;;;2.97;1.13;;;;;;;;;;5055427;28;20177;-84
2023/02/26 14:35:46;;;;;;;1.50;1.10;;;;;;;;;;5058116;28;20173;-83
2023/02/26 14:38:14;;;;;;;1.02;0.80;;;;;;;;;;5057673;28;20534;-83
2023/02/26 14:40:46;;;;;;;1.90;1.00;;;;;;;;;;5056576;28;20287;-84
2023/02/26 14:43:17;;;;;;;3.08;1.02;;;;;;;;;;5055754;28;20262;-84
2023/02/26 14:45:44;;;;;;;1.65;1.15;;;;;;;;;;5055306;28;20180;-84
2023/02/26 14:48:15;;;;;;;1.10;1.00;;;;;;;;;;5056662;28;20280;-84
2023/02/26 14:51:00;;;;;;;1.80;0.80;;;;;;;;;;5056151;28;20642;-84
2023/02/26 14:53:35;;;;;;;1.98;0.90;;;;;;;;;;5056624;28;20174;-83
2023/02/26 14:56:07;;;;;;;5.18;1.13;;;;;;;;;;5055040;28;20181;-83
2023/02/26 14:58:48;;;;;;;2.45;1.88;;;;;;;;;;5057023;28;20171;-84